Time;durP1;ratioP1;P1;durP2;ratioP2;P2;SDS_P1;SDS_P2;PMS_P1;PMS_P2;Temp;Humidity;BMP_temperature;BMP_pressure;BME280_temperature;BME280_humidity;BME280_pressure;Samples;Min_cycle;Max_cycle;Signal;HPM_P1;HPM_P2
2022/07/16 00:02:18;;;;;;;6.38;1.90;;;;;;;17.44;49.88;98922.75;5033081;28;20049;-72
2022/07/16 00:04:45;;;;;;;3.80;1.30;;;;;;;17.47;49.83;98927.59;5033172;28;20136;-71
2022/07/16 00:07:12;;;;;;;7.60;1.85;;;;;;;17.47;49.57;98924.78;5033154;28;20089;-71
2022/07/16 00:09:39;;;;;;;5.53;1.55;;;;;;;17.46;49.71;98923.16;5033118;28;20045;-71
2022/07/16 00:12:06;;;;;;;4.13;1.40;;;;;;;17.42;50.02;98923.13;5033240;28;20419;-70
2022/07/16 00:14:33;;;;;;;8.05;1.95;;;;;;;17.39;50.31;98923.91;5033223;28;20132;-71
2022/07/16 00:17:01;;;;;;;51.75;15.65;;;;;;;17.34;50.33;98915.03;5033340;28;20057;-72
2022/07/16 00:19:30;;;;;;;9.02;3.30;;;;;;;17.37;50.43;98928.28;5032813;28;20052;-71
2022/07/16 00:21:58;;;;;;;7.85;2.40;;;;;;;17.33;50.52;98928.28;5031941;28;20053;-71
2022/07/16 00:24:26;;;;;;;5.38;1.83;;;;;;;17.27;50.90;98924.22;5034899;28;20099;-71
2022/07/16 00:26:53;;;;;;;3.60;1.60;;;;;;;17.27;50.90;98926.22;5052617;28;20403;-71
2022/07/16 00:29:20;;;;;;;5.32;1.67;;;;;;;17.25;51.20;98928.63;5052752;28;20057;-70
2022/07/16 00:31:48;;;;;;;8.52;1.40;;;;;;;17.22;51.35;98927.41;5051981;28;20084;-70
2022/07/16 00:34:16;;;;;;;5.68;1.40;;;;;;;17.19;51.29;98927.38;5032844;28;20151;-69
2022/07/16 00:36:44;;;;;;;6.85;2.05;;;;;;;17.16;51.40;98931.78;5032553;28;20103;-69
2022/07/16 00:39:11;;;;;;;3.47;1.80;;;;;;;17.14;51.92;98936.97;5032998;28;20052;-69
2022/07/16 00:41:40;;;;;;;8.45;1.42;;;;;;;17.13;51.94;98935.38;5032509;28;20064;-67
2022/07/16 00:44:10;;;;;;;5.63;1.55;;;;;;;17.14;51.78;98947.44;5032960;28;20049;-66
2022/07/16 00:46:38;;;;;;;9.73;1.88;;;;;;;17.10;51.83;98940.97;5032525;28;20132;-66
2022/07/16 00:49:06;;;;;;;11.10;1.98;;;;;;;17.06;52.38;98945.75;5033324;28;20604;-65
2022/07/16 00:51:35;;;;;;;8.43;1.75;;;;;;;16.99;52.37;98938.06;5032574;28;20049;-66
2022/07/16 00:54:03;;;;;;;8.52;1.95;;;;;;;16.95;52.77;98934.44;5031153;28;20049;-65
2022/07/16 00:56:30;;;;;;;9.32;1.35;;;;;;;16.91;52.60;98932.78;5032553;28;20045;-67
2022/07/16 00:58:57;;;;;;;5.13;1.60;;;;;;;16.88;53.00;98940.00;5032448;28;20049;-67
2022/07/16 01:01:24;;;;;;;6.65;1.65;;;;;;;16.93;52.80;98942.44;5032410;28;20079;-67
2022/07/16 01:03:51;;;;;;;3.50;1.40;;;;;;;16.92;52.75;98942.81;5041036;28;20087;-65
2022/07/16 01:06:18;;;;;;;3.55;1.70;;;;;;;16.86;53.23;98952.81;5052278;28;20404;-66
2022/07/16 01:08:47;;;;;;;4.65;1.95;;;;;;;16.81;53.35;98939.16;5052425;28;20092;-66
2022/07/16 01:11:18;;;;;;;4.32;1.60;;;;;;;16.76;53.00;98953.53;5055507;28;20107;-66
2022/07/16 01:13:47;;;;;;;6.40;1.70;;;;;;;16.71;53.39;98956.69;5056611;28;20056;-65
2022/07/16 01:16:16;;;;;;;5.53;1.92;;;;;;;16.67;53.41;98950.25;5056711;28;20055;-67
2022/07/16 01:18:44;;;;;;;5.25;1.20;;;;;;;16.64;53.16;98951.81;5055125;28;20496;-66
2022/07/16 01:21:13;;;;;;;4.10;1.55;;;;;;;16.64;53.66;98951.81;5056106;28;20401;-65
2022/07/16 01:23:42;;;;;;;6.07;2.03;;;;;;;16.63;53.55;98950.19;5056325;28;20573;-66
2022/07/16 01:26:09;;;;;;;3.70;1.50;;;;;;;16.58;53.82;98947.72;5055910;28;20513;-66
2022/07/16 01:28:36;;;;;;;9.75;1.70;;;;;;;16.59;53.39;98954.97;5056069;28;20068;-66
2022/07/16 01:31:03;;;;;;;7.18;1.70;;;;;;;16.54;53.94;98960.13;5056033;28;20057;-66
2022/07/16 01:33:34;;;;;;;6.28;1.77;;;;;;;16.50;53.79;98954.50;5055910;28;20136;-66
2022/07/16 01:36:13;;;;;;;5.63;1.63;;;;;;;16.51;54.14;98963.69;5055846;28;20420;-66
2022/07/16 01:38:45;;;;;;;10.30;1.95;;;;;;;16.47;53.83;98957.25;5036324;28;20149;-66
2022/07/16 01:41:13;;;;;;;8.77;1.80;;;;;;;16.46;54.39;98961.28;5035528;28;20049;-66
2022/07/16 01:43:40;;;;;;;6.32;2.05;;;;;;;16.38;54.42;98955.53;5035793;28;20083;-67
2022/07/16 01:46:08;;;;;;;6.28;1.58;;;;;;;16.39;54.78;98957.16;5034265;28;20045;-66
2022/07/16 01:48:35;;;;;;;5.85;1.45;;;;;;;16.35;54.57;98973.16;5035729;28;20508;-69
2022/07/16 01:51:01;;;;;;;7.40;2.22;;;;;;;16.34;54.46;98965.91;5035798;28;20144;-69
2022/07/16 01:53:29;;;;;;;4.40;1.67;;;;;;;16.29;54.53;98973.88;5035587;28;20049;-69
2022/07/16 01:55:58;;;;;;;5.30;1.20;;;;;;;16.28;54.69;98973.06;5035703;28;20119;-69
2022/07/16 01:58:26;;;;;;;4.38;1.55;;;;;;;16.26;54.89;98966.25;5035653;28;20041;-69
2022/07/16 02:00:53;;;;;;;6.30;1.90;;;;;;;16.20;55.17;98971.38;5053083;28;20433;-69
2022/07/16 02:03:20;;;;;;;5.47;1.60;;;;;;;16.17;55.13;98974.16;5050730;28;20508;-70
2022/07/16 02:05:47;;;;;;;5.85;1.80;;;;;;;16.13;55.37;98971.31;5036021;28;20412;-70
2022/07/16 02:08:15;;;;;;;5.97;2.15;;;;;;;16.12;55.35;98980.91;5035262;28;20076;-70
2022/07/16 02:10:42;;;;;;;9.85;1.92;;;;;;;16.10;55.67;98974.88;5035435;28;20111;-70
2022/07/16 02:13:09;;;;;;;10.05;2.00;;;;;;;16.06;55.67;98971.22;5035303;28;20076;-70
2022/07/16 02:15:56;;;;;;;5.07;1.70;;;;;;;16.09;55.55;98972.44;5034414;28;20240;-70
2022/07/16 02:18:23;;;;;;;8.43;1.63;;;;;;;16.11;55.52;98970.88;5035164;28;20593;-70
2022/07/16 02:20:50;;;;;;;3.90;1.58;;;;;;;16.11;55.75;98976.47;5035253;28;20504;-69
2022/07/16 02:23:17;;;;;;;3.88;1.50;;;;;;;16.09;56.04;98970.47;5033059;28;20099;-69
2022/07/16 02:25:44;;;;;;;6.53;1.65;;;;;;;16.08;55.71;98968.81;5035029;28;20049;-70
2022/07/16 02:28:11;;;;;;;5.45;1.40;;;;;;;16.13;55.98;98976.09;5034956;28;20053;-70
2022/07/16 02:30:43;;;;;;;2.85;1.50;;;;;;;16.18;55.82;98982.19;5034976;28;20055;-69
2022/07/16 02:33:14;;;;;;;8.20;1.20;;;;;;;16.21;55.65;98989.84;5034775;28;20416;-72
2022/07/16 02:35:42;;;;;;;4.88;1.38;;;;;;;16.19;55.63;98975.38;5041176;28;20045;-70
2022/07/16 02:38:10;;;;;;;8.57;1.60;;;;;;;16.20;55.37;98974.19;5054431;28;20049;-68
2022/07/16 02:40:38;;;;;;;9.18;2.10;;;;;;;16.25;55.79;98978.63;5054902;28;20045;-70
2022/07/16 02:43:07;;;;;;;4.55;1.25;;;;;;;16.26;55.68;98983.09;5041078;28;20041;-70
2022/07/16 02:45:37;;;;;;;13.07;1.80;;;;;;;16.25;55.91;98979.47;5034731;28;20136;-70
2022/07/16 02:48:05;;;;;;;3.92;1.52;;;;;;;16.26;55.68;98983.88;5034515;28;20413;-70
2022/07/16 02:50:32;;;;;;;6.70;1.38;;;;;;;16.26;55.78;98986.69;5054519;28;20049;-70
2022/07/16 02:53:00;;;;;;;4.68;1.65;;;;;;;16.33;55.49;98989.59;5054476;28;20080;-70
2022/07/16 02:55:29;;;;;;;5.25;1.63;;;;;;;16.34;55.75;98994.00;5054505;28;20079;-70
2022/07/16 02:57:56;;;;;;;6.30;1.60;;;;;;;16.35;55.29;98990.00;5054197;28;20398;-69
2022/07/16 03:00:25;;;;;;;4.60;1.58;;;;;;;16.40;55.72;98991.63;5054434;28;20057;-69
2022/07/16 03:02:52;;;;;;;7.88;1.75;;;;;;;16.39;55.32;98984.41;5053432;28;20056;-69
2022/07/16 03:05:19;;;;;;;7.70;1.80;;;;;;;16.39;55.47;98985.25;5034383;28;20468;-69
2022/07/16 03:07:46;;;;;;;8.00;1.67;;;;;;;16.41;55.69;98987.66;5034194;28;20386;-69
2022/07/16 03:10:14;;;;;;;3.85;2.00;;;;;;;16.46;55.43;98994.97;5034330;28;20080;-70
2022/07/16 03:12:41;;;;;;;3.95;1.77;;;;;;;16.43;54.96;98991.72;5034218;28;20540;-70
2022/07/16 03:15:11;;;;;;;5.03;1.45;;;;;;;16.48;54.68;98992.56;5033814;28;20140;-70
2022/07/16 03:17:41;;;;;;;4.07;1.35;;;;;;;16.51;54.54;98994.59;5034098;28;20067;-67
2022/07/16 03:20:11;;;;;;;4.63;1.70;;;;;;;16.57;54.64;99001.47;5034338;28;20049;-67
2022/07/16 03:22:46;;;;;;;5.05;1.23;;;;;;;16.69;54.36;99006.84;5033936;28;20049;-66
2022/07/16 03:25:16;;;;;;;6.70;1.52;;;;;;;16.76;54.38;99004.09;5038816;28;20447;-69
2022/07/16 03:27:44;;;;;;;3.22;1.40;;;;;;;16.86;53.88;99011.81;5053786;28;20396;-69
2022/07/16 03:30:13;;;;;;;3.13;1.40;;;;;;;16.96;53.57;99019.56;5054097;28;20078;-69
2022/07/16 03:32:40;;;;;;;3.28;1.42;;;;;;;17.00;53.74;99026.00;5038682;28;20045;-69
2022/07/16 03:35:09;;;;;;;4.03;1.25;;;;;;;16.99;53.47;99024.38;5037796;28;20041;-69
2022/07/16 03:40:22;;;;;;;3.97;1.20;;;;;;;17.04;53.06;99036.06;5053695;28;20048;-69
2022/07/16 03:42:49;;;;;;;3.58;2.63;;;;;;;17.21;52.57;99035.44;5053721;28;20464;-69
2022/07/16 03:45:16;;;;;;;3.05;1.27;;;;;;;17.38;52.40;99036.78;5053786;28;20468;-69
2022/07/16 03:47:43;;;;;;;4.00;1.17;;;;;;;17.55;51.86;99024.84;5053385;28;20139;-69
2022/07/16 03:50:10;;;;;;;4.95;1.85;;;;;;;17.69;51.48;99036.22;5053411;28;20048;-69
2022/07/16 03:52:43;;;;;;;2.72;1.20;;;;;;;17.78;51.42;99028.22;5053306;28;20040;-69
2022/07/16 03:55:10;;;;;;;6.22;1.17;;;;;;;17.84;51.37;99027.47;5053429;28;20132;-69
2022/07/16 03:57:37;;;;;;;2.30;1.10;;;;;;;17.89;51.14;99034.75;5053175;28;20049;-69
2022/07/16 04:00:06;;;;;;;3.03;1.20;;;;;;;17.88;51.15;99038.72;5053590;28;20132;-69
2022/07/16 04:02:33;;;;;;;4.57;1.15;;;;;;;17.89;51.28;99034.75;5053177;28;20045;-69
2022/07/16 04:05:00;;;;;;;2.97;1.50;;;;;;;17.94;51.24;99040.78;5034652;28;20140;-69
2022/07/16 04:07:27;;;;;;;5.28;2.15;;;;;;;18.01;51.35;99032.41;5033049;28;20516;-68
2022/07/16 04:09:54;;;;;;;4.65;1.20;;;;;;;18.04;51.04;99036.44;5031946;28;20049;-69
2022/07/16 04:12:24;;;;;;;3.33;1.27;;;;;;;18.09;51.28;99038.88;5033066;28;20408;-69
2022/07/16 04:14:53;;;;;;;5.38;1.40;;;;;;;18.11;50.82;99042.09;5033106;28;20049;-69
2022/07/16 04:17:20;;;;;;;3.10;1.27;;;;;;;18.11;51.12;99036.44;5032983;28;20412;-69
2022/07/16 04:19:47;;;;;;;4.10;1.52;;;;;;;18.20;50.96;99045.34;5033122;28;20068;-69
2022/07/16 04:22:14;;;;;;;4.80;1.60;;;;;;;18.29;50.87;99053.44;5033168;28;20136;-69
2022/07/16 04:24:41;;;;;;;3.80;1.20;;;;;;;18.41;50.60;99051.09;5037371;28;20048;-70
2022/07/16 04:27:08;;;;;;;6.72;1.27;;;;;;;18.52;50.48;99045.50;5052677;28;20412;-69
2022/07/16 04:29:35;;;;;;;5.95;1.65;;;;;;;18.61;50.41;99043.94;5052871;28;20071;-69
2022/07/16 04:32:02;;;;;;;2.97;1.55;;;;;;;18.73;50.07;99039.94;5052505;28;20055;-69
2022/07/16 04:34:29;;;;;;;5.22;1.50;;;;;;;18.83;49.82;99039.16;5052691;28;20449;-70
2022/07/16 04:36:56;;;;;;;5.75;1.20;;;;;;;18.99;49.60;99037.59;5052552;28;20056;-69
2022/07/16 04:39:25;;;;;;;4.88;1.40;;;;;;;19.17;49.35;99038.41;5052675;28;20611;-70
2022/07/16 04:41:52;;;;;;;3.58;1.55;;;;;;;19.31;49.29;99032.81;5052607;28;20055;-70
2022/07/16 04:44:19;;;;;;;6.18;1.20;;;;;;;19.43;48.93;99035.22;5052494;28;20057;-70
2022/07/16 04:46:50;;;;;;;3.72;1.10;;;;;;;19.54;48.73;99041.66;5052427;28;20420;-71
2022/07/16 04:49:17;;;;;;;6.85;1.40;;;;;;;19.62;48.47;99034.78;5053069;28;20469;-70
2022/07/16 04:51:46;;;;;;;2.40;1.35;;;;;;;19.72;48.37;99050.91;5052696;28;20099;-70
2022/07/16 04:54:13;;;;;;;3.08;1.55;;;;;;;19.83;48.30;99054.50;5052475;28;20052;-70
2022/07/16 04:56:40;;;;;;;4.53;1.10;;;;;;;20.01;48.05;99053.69;5052527;28;20078;-70
2022/07/16 04:59:07;;;;;;;6.38;1.25;;;;;;;20.13;47.49;99056.09;5052470;28;20068;-70
2022/07/16 05:01:34;;;;;;;1.85;1.00;;;;;;;20.35;46.99;99058.44;5052715;28;20178;-70
2022/07/16 05:04:01;;;;;;;6.28;1.33;;;;;;;20.78;46.23;99053.41;5052348;28;20073;-70
2022/07/16 05:06:28;;;;;;;3.65;1.27;;;;;;;20.83;45.92;99059.44;5052309;28;20065;-69
2022/07/16 05:08:56;;;;;;;1.95;1.00;;;;;;;20.84;45.55;99051.75;5052286;28;20060;-71
2022/07/16 05:11:24;;;;;;;4.80;1.02;;;;;;;20.81;45.49;99055.41;5052322;28;20063;-70
2022/07/16 05:13:53;;;;;;;1.20;0.70;;;;;;;20.71;45.71;99051.41;5052421;28;20136;-70
2022/07/16 05:16:20;;;;;;;4.47;1.10;;;;;;;20.68;45.87;99045.78;5052284;28;20072;-70
2022/07/16 05:18:48;;;;;;;4.40;0.95;;;;;;;20.89;45.36;99054.94;5052467;28;20412;-70
2022/07/16 05:21:15;;;;;;;1.67;0.80;;;;;;;20.99;44.94;99056.13;5052221;28;20564;-70
2022/07/16 05:23:47;;;;;;;3.53;1.00;;;;;;;21.19;44.98;99051.53;5052336;28;20488;-70
2022/07/16 05:26:14;;;;;;;9.77;1.00;;;;;;;21.35;44.20;99054.66;5052471;28;20091;-70
2022/07/16 05:28:41;;;;;;;2.20;1.00;;;;;;;21.53;43.73;99061.78;5051774;28;20473;-70
2022/07/16 05:31:08;;;;;;;2.58;0.88;;;;;;;21.80;43.17;99067.66;5052008;28;20392;-70
2022/07/16 05:33:35;;;;;;;2.85;1.02;;;;;;;22.05;42.99;99064.56;5052246;28;20135;-70
2022/07/16 05:36:02;;;;;;;1.42;0.75;;;;;;;22.28;42.14;99059.84;5051918;28;20527;-70
2022/07/16 05:38:29;;;;;;;5.63;1.20;;;;;;;22.48;41.66;99065.69;5051761;28;20048;-70
2022/07/16 05:40:56;;;;;;;5.07;1.10;;;;;;;22.74;41.33;99065.78;5052090;28;20079;-70
2022/07/16 05:43:23;;;;;;;7.38;1.02;;;;;;;22.99;40.91;99074.75;5051714;28;20049;-70
2022/07/16 05:45:50;;;;;;;2.85;0.90;;;;;;;22.99;40.83;99066.25;5052072;28;20148;-71
2022/07/16 05:48:17;;;;;;;1.98;1.10;;;;;;;23.16;40.57;99073.72;5051972;28;20052;-68
2022/07/16 05:50:44;;;;;;;5.72;1.00;;;;;;;23.31;40.27;99075.13;5051000;28;20166;-68
2022/07/16 05:53:11;;;;;;;4.88;1.08;;;;;;;23.38;39.88;99075.00;5052053;28;20048;-68
2022/07/16 05:55:37;;;;;;;3.28;1.00;;;;;;;23.42;39.76;99068.47;5051840;28;20563;-68
2022/07/16 05:58:04;;;;;;;4.18;0.95;;;;;;;23.66;39.51;99067.25;5054275;28;20074;-66
2022/07/16 06:00:31;;;;;;;4.15;0.90;;;;;;;23.92;38.42;99069.25;5055791;28;20049;-66
2022/07/16 06:02:58;;;;;;;2.60;1.20;;;;;;;24.02;38.41;99073.94;5053699;28;20099;-69
2022/07/16 06:05:26;;;;;;;4.18;1.92;;;;;;;24.24;38.21;99069.47;5034079;28;20148;-66
2022/07/16 06:07:53;;;;;;;1.58;1.08;;;;;;;24.71;37.47;99083.16;5035186;28;20432;-67
2022/07/16 06:10:20;;;;;;;2.65;1.10;;;;;;;25.28;36.20;99082.69;5035499;28;20115;-66
2022/07/16 06:12:47;;;;;;;1.65;0.88;;;;;;;26.97;33.31;99083.97;5035556;28;20041;-66
2022/07/16 06:15:14;;;;;;;2.38;1.20;;;;;;;29.95;27.89;99073.13;5035294;28;20505;-67
2022/07/16 06:17:41;;;;;;;1.80;0.85;;;;;;;33.50;23.01;99072.72;5034142;28;20095;-68
2022/07/16 06:20:12;;;;;;;3.47;0.70;;;;;;;34.57;21.21;99084.03;5035325;28;20057;-70
2022/07/16 06:22:39;;;;;;;2.53;0.90;;;;;;;33.09;23.06;99071.69;5035187;28;20111;-70
2022/07/16 06:25:11;;;;;;;3.53;1.20;;;;;;;32.48;23.64;99076.25;5042632;28;20067;-70
2022/07/16 06:27:43;;;;;;;4.55;0.90;;;;;;;31.53;24.37;99083.94;5054861;28;20079;-72
2022/07/16 06:30:11;;;;;;;1.27;0.70;;;;;;;30.36;25.33;99068.91;5055042;28;20045;-70
2022/07/16 06:32:38;;;;;;;2.35;0.80;;;;;;;28.92;27.06;99072.75;5054363;28;20132;-71
2022/07/16 06:35:06;;;;;;;3.75;0.80;;;;;;;27.46;28.99;99076.72;5054977;28;20408;-72
2022/07/16 06:37:33;;;;;;;3.60;1.10;;;;;;;26.35;30.83;99071.84;5054387;28;20428;-73
2022/07/16 06:40:00;;;;;;;2.75;0.90;;;;;;;25.39;32.58;99077.59;5054943;28;20056;-70
2022/07/16 06:42:28;;;;;;;5.57;0.90;;;;;;;25.32;32.92;99076.94;5054698;28;20053;-70
2022/07/16 06:44:55;;;;;;;4.57;1.08;;;;;;;25.95;31.51;99081.88;5054721;28;20051;-70
2022/07/16 06:47:22;;;;;;;2.10;0.70;;;;;;;26.37;30.32;99077.91;5054518;28;20148;-69
2022/07/16 06:49:49;;;;;;;3.70;0.80;;;;;;;26.37;30.60;99069.34;5054629;28;20048;-71
2022/07/16 06:52:16;;;;;;;3.67;1.08;;;;;;;26.07;30.64;99077.53;5054295;28;20578;-72
2022/07/16 06:54:43;;;;;;;3.83;0.90;;;;;;;27.60;27.88;99093.41;5054613;28;20051;-72
2022/07/16 06:57:10;;;;;;;1.17;0.70;;;;;;;28.38;26.95;99072.31;5054372;28;20064;-72
2022/07/16 06:59:37;;;;;;;1.88;0.75;;;;;;;30.72;24.27;99075.44;5054525;28;20089;-73
2022/07/16 07:02:04;;;;;;;2.00;0.98;;;;;;;34.51;20.50;99069.53;5054267;28;20045;-73
2022/07/16 07:04:31;;;;;;;3.40;0.90;;;;;;;38.93;16.87;99066.28;5039892;28;20119;-69
2022/07/16 07:06:58;;;;;;;2.95;1.02;;;;;;;42.36;14.21;99072.41;5034463;28;20061;-73
2022/07/16 07:09:25;;;;;;;2.47;1.20;;;;;;;44.85;12.16;99072.91;5034047;28;20046;-72
2022/07/16 07:11:52;;;;;;;2.45;0.93;;;;;;;46.57;10.77;99080.50;5034157;28;20084;-71
2022/07/16 07:14:19;;;;;;;2.75;1.10;;;;;;;47.31;10.06;99077.91;5034310;28;20627;-71
2022/07/16 07:16:46;;;;;;;2.78;1.05;;;;;;;48.34;9.29;99079.97;5034034;28;20141;-71
2022/07/16 07:19:12;;;;;;;2.92;1.20;;;;;;;48.85;8.55;99088.88;5034083;28;20408;-71
2022/07/16 07:21:40;;;;;;;2.97;1.13;;;;;;;49.33;8.47;99090.06;5033800;28;20061;-69
2022/07/16 07:24:07;;;;;;;3.23;1.20;;;;;;;49.71;7.86;99080.66;5033836;28;20312;-70
2022/07/16 07:26:53;;;;;;;4.85;1.33;;;;;;;50.42;7.11;99084.25;5049397;28;20370;-71
2022/07/16 07:29:21;;;;;;;6.75;1.50;;;;;;;50.45;7.14;99085.97;5053312;28;20057;-71
2022/07/16 07:31:48;;;;;;;2.30;1.10;;;;;;;51.50;6.75;99089.78;5052229;28;20326;-70
2022/07/16 07:34:15;;;;;;;2.03;1.20;;;;;;;51.50;6.49;99086.81;5053456;28;20136;-73
2022/07/16 07:36:42;;;;;;;2.05;1.10;;;;;;;50.72;6.89;99090.41;5053135;28;20088;-71
2022/07/16 07:39:09;;;;;;;2.67;1.42;;;;;;;49.63;7.64;99079.97;5053746;28;20045;-71
2022/07/16 07:41:37;;;;;;;2.58;1.33;;;;;;;50.31;6.83;99078.91;5053712;28;20048;-72
2022/07/16 07:44:04;;;;;;;5.25;1.10;;;;;;;47.83;7.96;99082.72;5053734;28;20049;-72
2022/07/16 07:46:31;;;;;;;2.30;1.10;;;;;;;47.42;8.14;99077.44;5053479;28;20502;-71
2022/07/16 07:48:58;;;;;;;4.18;1.25;;;;;;;44.33;9.69;99082.94;5053468;28;20595;-72
2022/07/16 07:51:25;;;;;;;2.78;0.90;;;;;;;43.95;10.01;99075.94;5053125;28;20082;-71
2022/07/16 07:53:52;;;;;;;76.93;36.70;;;;;;;43.87;10.62;99074.31;5037958;28;20140;-72
2022/07/16 07:56:18;;;;;;;3.77;1.63;;;;;;;47.50;8.44;99078.19;5033936;28;20059;-71
2022/07/16 07:58:45;;;;;;;6.50;1.20;;;;;;;47.95;8.00;99080.09;5033448;28;20464;-73
2022/07/16 08:01:12;;;;;;;3.67;1.30;;;;;;;45.20;9.85;99091.88;5033966;28;20056;-72
2022/07/16 08:03:51;;;;;;;6.32;1.50;;;;;;;47.51;7.99;99074.66;5041900;28;20587;-70
2022/07/16 08:06:18;;;;;;;4.38;1.15;;;;;;;49.05;7.45;99072.91;5053015;28;20472;-70
2022/07/16 08:08:46;;;;;;;3.80;0.98;;;;;;;44.00;10.22;99068.38;5052880;28;20103;-70
2022/07/16 08:11:12;;;;;;;3.00;1.13;;;;;;;45.73;9.11;99078.13;5040288;28;20140;-69
2022/07/16 08:13:39;;;;;;;3.45;1.00;;;;;;;45.94;9.21;99082.44;5033084;28;20539;-70
2022/07/16 08:16:26;;;;;;;5.85;1.48;;;;;;;43.19;10.81;99080.19;5033255;28;20408;-70
2022/07/16 08:18:53;;;;;;;4.57;1.00;;;;;;;42.57;11.07;99076.22;5032879;28;20041;-70
2022/07/16 08:21:20;;;;;;;4.33;1.10;;;;;;;41.43;11.75;99077.72;5032364;28;20084;-70
2022/07/16 08:26:33;;;;;;;4.88;1.10;;;;;;;42.97;11.01;99079.91;5052568;28;20135;-70
2022/07/16 08:29:00;;;;;;;3.40;1.17;;;;;;;45.00;9.75;99081.81;5052708;28;20049;-70
2022/07/16 08:31:27;;;;;;;2.67;1.20;;;;;;;48.36;7.39;99088.97;5052620;28;20053;-70
2022/07/16 08:33:54;;;;;;;12.18;5.20;;;;;;;50.89;6.41;99093.22;5052816;28;20048;-67
2022/07/16 08:36:21;;;;;;;1.80;1.27;;;;;;;52.65;5.57;99083.38;5066826;28;20065;-67
2022/07/16 08:38:48;;;;;;;2.72;1.00;;;;;;;52.05;5.67;99089.47;5072641;28;20135;-67
2022/07/16 08:41:16;;;;;;;7.15;1.00;;;;;;;51.00;6.00;99085.91;5071405;28;20415;-68
2022/07/16 08:43:44;;;;;;;2.38;1.20;;;;;;;46.77;8.13;99090.47;5032657;28;20100;-68
2022/07/16 08:46:11;;;;;;;;;;;;;;;43.34;10.29;99078.81;5033012;28;20469;-68
2022/07/16 08:48:38;;;;;;;2.92;1.20;;;;;;;40.64;11.84;99088.09;5032479;28;19971;-67
2022/07/16 08:51:09;;;;;;;4.38;1.27;;;;;;;45.52;9.42;99090.03;5031623;28;20072;-67
2022/07/16 08:53:39;;;;;;;5.35;1.35;;;;;;;47.65;7.91;99084.03;5039262;28;20136;-69
2022/07/16 08:56:06;;;;;;;2.03;1.10;;;;;;;42.85;10.69;99079.38;5051025;28;20053;-68
2022/07/16 08:58:35;;;;;;;1.55;0.93;;;;;;;45.85;9.05;99088.16;5052395;28;20064;-67
2022/07/16 09:01:02;;;;;;;1.70;1.20;;;;;;;49.24;7.06;99078.94;5034232;28;20049;-68
2022/07/16 09:03:29;;;;;;;3.70;1.30;;;;;;;52.07;5.95;99080.72;5032733;28;20103;-67
2022/07/16 09:05:57;;;;;;;2.70;1.40;;;;;;;53.75;5.15;99079.09;5032529;28;20050;-71
2022/07/16 09:08:23;;;;;;;3.25;1.48;;;;;;;55.23;4.51;99094.53;5032685;28;20050;-71
2022/07/16 09:10:51;;;;;;;3.53;1.30;;;;;;;56.56;3.79;99088.06;5032405;28;20049;-70
2022/07/16 09:13:18;;;;;;;2.78;1.38;;;;;;;56.69;3.71;99089.47;5032330;28;20448;-70
2022/07/16 09:15:45;;;;;;;4.75;1.33;;;;;;;56.92;3.07;99098.19;5032421;28;20045;-71
2022/07/16 09:18:18;;;;;;;4.55;1.60;;;;;;;57.08;3.28;99090.09;5032239;28;20508;-70
2022/07/16 09:20:57;;;;;;;1.70;1.40;;;;;;;57.41;3.32;99090.31;5032407;28;20049;-67
2022/07/16 09:23:34;;;;;;;2.85;1.38;;;;;;;57.77;3.13;99086.19;5032262;28;20390;-67
2022/07/16 09:26:08;;;;;;;2.58;1.60;;;;;;;56.59;3.76;99085.94;5048759;28;20523;-68
2022/07/16 09:28:50;;;;;;;2.42;1.15;;;;;;;54.50;4.12;99082.53;5052094;28;20464;-68
2022/07/16 09:31:37;;;;;;;1.60;1.05;;;;;;;50.74;5.66;99092.75;5047072;28;20049;-67
2022/07/16 09:34:09;;;;;;;2.85;1.38;;;;;;;53.34;4.44;99093.47;5036222;28;20099;-70
2022/07/16 09:36:39;;;;;;;3.55;1.70;;;;;;;55.59;3.44;99096.72;5035906;28;20066;-68
2022/07/16 09:39:07;;;;;;;4.95;1.40;;;;;;;56.88;2.99;99095.00;5035886;28;20063;-68
2022/07/16 09:41:45;;;;;;;3.20;1.40;;;;;;;56.32;3.14;99083.69;5036137;28;20053;-66
2022/07/16 09:44:18;;;;;;;2.72;1.00;;;;;;;51.35;5.26;99081.25;5052533;28;20056;-67
2022/07/16 09:47:11;;;;;;;2.45;1.00;;;;;;;45.53;8.38;99073.19;5055470;28;20091;-67
2022/07/16 09:49:49;;;;;;;3.50;0.98;;;;;;;41.18;10.70;99073.34;5044043;28;20045;-68
2022/07/16 09:52:32;;;;;;;;;;;;;;;37.81;13.07;99064.22;5036446;28;20053;-67
2022/07/16 09:55:00;;;;;;;1.95;0.80;;;;;;;35.92;14.98;99063.31;5035973;28;19936;-68
2022/07/16 09:57:29;;;;;;;2.95;0.80;;;;;;;34.74;15.66;99056.13;5035586;28;20053;-67
2022/07/16 09:59:58;;;;;;;3.33;0.77;;;;;;;33.55;17.15;99075.69;5035567;28;20076;-67
2022/07/16 10:02:30;;;;;;;2.05;1.10;;;;;;;32.75;18.23;99076.00;5035439;28;20508;-67
2022/07/16 10:04:59;;;;;;;2.13;0.93;;;;;;;31.92;19.06;99082.03;5053350;28;20049;-66
2022/07/16 10:07:31;;;;;;;1.92;0.80;;;;;;;31.03;19.68;99072.41;5055349;28;20048;-66
2022/07/16 10:09:59;;;;;;;3.72;0.77;;;;;;;30.51;20.68;99081.34;5055214;28;20455;-67
2022/07/16 10:12:29;;;;;;;1.95;0.82;;;;;;;30.06;21.14;99074.28;5054873;28;20083;-67
2022/07/16 10:14:58;;;;;;;1.67;0.70;;;;;;;29.61;21.78;99070.47;5053942;28;20045;-70
2022/07/16 10:17:34;;;;;;;3.70;0.90;;;;;;;29.53;21.77;99081.41;5055078;28;20091;-70
2022/07/16 10:20:12;;;;;;;2.75;0.93;;;;;;;29.35;22.14;99086.25;5054996;28;20111;-69
2022/07/16 10:22:44;;;;;;;2.47;0.77;;;;;;;28.79;22.26;99083.50;5054844;28;20048;-70
2022/07/16 10:25:16;;;;;;;1.55;0.70;;;;;;;28.55;22.56;99079.50;5054634;28;20139;-70
2022/07/16 10:27:44;;;;;;;3.28;1.60;;;;;;;28.31;22.81;99078.31;5054912;28;20512;-70
2022/07/16 10:30:15;;;;;;;1.35;0.70;;;;;;;28.29;22.94;99083.69;5054890;28;20045;-70
2022/07/16 10:33:06;;;;;;;8.30;2.72;;;;;;;28.22;23.08;99081.09;5054892;28;20136;-70
2022/07/16 10:35:45;;;;;;;2.15;0.85;;;;;;;28.36;23.08;99086.31;5054577;28;20574;-67
2022/07/16 10:38:21;;;;;;;2.60;0.75;;;;;;;28.51;23.11;99084.56;5049392;28;20115;-67
2022/07/16 10:41:20;;;;;;;1.90;0.88;;;;;;;28.33;23.26;99095.84;5035001;28;20239;-67
2022/07/16 10:44:12;;;;;;;1.65;0.63;;;;;;;28.10;24.06;99094.16;5034172;28;20048;-67
2022/07/16 10:47:03;;;;;;;5.45;0.77;;;;;;;27.64;24.59;99105.50;5034766;28;20479;-68
2022/07/16 10:49:33;;;;;;;1.17;0.70;;;;;;;27.16;25.37;99085.81;5034753;28;20071;-68
2022/07/16 10:52:11;;;;;;;4.47;1.20;;;;;;;27.12;25.57;99093.69;5034686;28;20054;-70
2022/07/16 10:54:39;;;;;;;1.27;0.65;;;;;;;27.30;25.19;99085.41;5034885;28;20132;-70
2022/07/16 10:57:11;;;;;;;2.75;0.73;;;;;;;27.53;25.39;99093.66;5034218;28;20081;-70
2022/07/16 10:59:44;;;;;;;3.35;0.70;;;;;;;27.77;24.96;99097.75;5034607;28;20054;-69
2022/07/16 11:02:14;;;;;;;0.90;0.50;;;;;;;27.68;24.47;99100.50;5034526;28;20046;-70
2022/07/16 11:04:42;;;;;;;;;;;;;;;27.26;24.66;99099.78;5033439;28;20057;-70
2022/07/16 11:07:20;;;;;;;1.88;0.80;;;;;;;27.08;25.33;99095.88;5034573;28;19971;-70
2022/07/16 11:09:50;;;;;;;2.92;1.38;;;;;;;27.02;25.30;99101.31;5034000;28;20060;-70
2022/07/16 11:12:25;;;;;;;;;;;;;;;26.97;25.58;99104.75;5034684;28;20111;-71
2022/07/16 11:14:58;;;;;;;1.98;0.80;;;;;;;27.22;25.63;99107.66;5034205;28;19964;-70
2022/07/16 11:17:27;;;;;;;2.08;0.90;;;;;;;27.11;25.50;99100.66;5034237;28;20504;-71
2022/07/16 11:19:56;;;;;;;3.67;0.80;;;;;;;27.16;25.65;99100.09;5034373;28;20049;-70
2022/07/16 11:22:24;;;;;;;;;;;;;;;27.17;25.54;99107.41;5034491;28;20049;-71
2022/07/16 11:24:58;;;;;;;1.55;0.85;;;;;;;27.19;25.48;99104.88;5034601;28;20431;-70
2022/07/16 11:27:28;;;;;;;1.30;0.70;;;;;;;27.19;25.74;99113.47;5032395;28;20515;-70
2022/07/16 11:29:57;;;;;;;3.90;0.95;;;;;;;27.45;25.25;99109.41;5032526;28;20056;-70
2022/07/16 11:32:24;;;;;;;4.20;1.00;;;;;;;27.59;25.38;99120.41;5033862;28;20049;-70
2022/07/16 11:34:52;;;;;;;2.40;0.80;;;;;;;27.44;25.47;99113.53;5033994;28;20050;-70
2022/07/16 11:37:20;;;;;;;2.35;0.90;;;;;;;27.16;26.31;99120.06;5051145;28;20057;-70
2022/07/16 11:39:48;;;;;;;2.88;1.00;;;;;;;26.86;26.26;99115.69;5053619;28;20049;-70
2022/07/16 11:42:20;;;;;;;4.45;2.00;;;;;;;26.59;26.62;99116.00;5049181;28;20048;-69
2022/07/16 11:44:47;;;;;;;1.38;0.70;;;;;;;26.26;27.42;99117.31;5032449;28;20076;-70
2022/07/16 11:47:14;;;;;;;9.98;4.78;;;;;;;26.06;27.49;99121.53;5033647;28;20049;-70
2022/07/16 11:49:43;;;;;;;8.93;1.00;;;;;;;26.20;27.29;99110.56;5033811;28;20414;-70
2022/07/16 11:52:21;;;;;;;2.65;0.90;;;;;;;26.43;27.45;99106.69;5033761;28;20057;-69